• Join FlightAware (Why Join?)
  • Login
  • US Flag 
Rudolph Flight #1: Arrived! 
12:56PM EST


 

Airport Tracker/Info


-or-


 

Live Flight TrackerFlight Track Log ✈ C-GKZT ✈ 27-Jun-2013 ✈ CYEG - CYXS

Flight Track Log - Related Links

Times and Time Zones

All times are in EDT time to prevent confusion due to time zone crossing. See the C-GKZT flight status page for this flight to view local times or setup timezone preferences in your user account.

Time Position Orientation Groundspeed Altitude Reporting Facility
EDT Latitude Longitude Course Direction KTS MPH feet Rate Location/Type
05:09PM 53.2833 -113.6333 225° Southwest 190 219 3,200  Level Edmonton Center
05:10PM 53.2333 -113.7167 225° Southwest 240 276 5,800 2,700 Climbing Edmonton Center
05:11PM 53.2500 -113.8333 283° West 250 288 8,600 2,460 Climbing Edmonton Center
05:12PM 53.2500 -113.9500 270° West 260 299 10,800 2,340 Climbing Edmonton Center
05:13PM 53.2667 -114.0833 282° West 270 311 13,300 2,280 Climbing Edmonton Center
05:14PM 53.2833 -114.2000 283° West 280 322 15,400 2,160 Climbing Edmonton Center
05:15PM 53.2833 -114.3500 270° West 290 334 17,700 2,100 Climbing Edmonton Center
05:16PM 53.3167 -114.4667 296° West 290 334 19,700 1,980 Climbing Edmonton Center
05:17PM 53.3167 -114.6167 270° West 300 345 21,700 2,100 Climbing Edmonton Center
05:18PM 53.3333 -114.7667 281° West 300 345 24,000 2,100 Climbing Edmonton Center
05:19PM 53.3500 -114.8833 284° West 300 345 26,000 2,100 Climbing Edmonton Center
05:20PM 53.3667 -115.0333 281° West 290 334 28,200 2,040 Climbing Edmonton Center
05:21PM 53.3667 -115.1667 270° West 280 322 30,100 1,680 Climbing Edmonton Center
05:22PM 53.4000 -115.2833 296° West 280 322 31,600 1,320 Climbing Edmonton Center
05:23PM 53.4000 -115.4333 270° West 290 334 32,800 1,320 Climbing Edmonton Center
05:24PM 53.4167 -115.5500 284° West 280 322 34,300 1,080 Climbing Edmonton Center
05:25PM 53.4167 -115.7000 270° West 280 322 35,000 720 Climbing Edmonton Center
05:26PM 53.4500 -115.8167 296° West 290 334 35,800 900 Climbing Edmonton Center
05:27PM 53.4500 -115.9667 270° West 290 334 36,800 720 Climbing Edmonton Center
05:28PM 53.4667 -116.1167 281° West 300 345 37,300 540 Climbing Edmonton Center
05:29PM 53.4667 -116.2500 270° West 300 345 37,900 780 Climbing Edmonton Center
05:30PM 53.5000 -116.3833 293° West 310 357 38,900 840 Climbing Edmonton Center
05:31PM 53.5000 -116.5167 270° West 300 345 39,600 540 Climbing Edmonton Center
05:32PM 53.5167 -116.6667 281° West 290 334 40,000 180 Climbing Edmonton Center
05:33PM 53.5167 -116.7833 270° West 300 345 40,000  Level Edmonton Center
05:34PM 53.5333 -116.9667 279° West 320 368 40,000  Level Edmonton Center
05:35PM 53.5500 -117.1167 281° West 330 380 40,000  Level Edmonton Center
05:36PM 53.5500 -117.2667 270° West 340 391 40,000  Level Edmonton Center
05:37PM 53.5667 -117.4333 280° West 340 391 40,000  Level Edmonton Center
05:38PM 53.5833 -117.5833 281° West 350 403 40,000  Level Edmonton Center
05:39PM 53.6000 -117.7667 279° West 350 403 40,000  Level Edmonton Center
05:40PM 53.6167 -117.9167 281° West 360 414 40,000  Level Edmonton Center
05:41PM 53.6333 -118.1000 279° West 360 414 40,000  Level Edmonton Center
05:42PM 53.6333 -118.2667 270° West 360 414 40,000  Level Edmonton Center
05:43PM 53.6500 -118.4167 281° West 360 414 40,000  Level Edmonton Center
05:44PM 53.6667 -118.6000 279° West 370 426 40,000  Level Edmonton Center
05:45PM 53.6833 -118.7833 279° West 360 414 40,000  Level Edmonton Center
05:46PM 53.6833 -118.9500 270° West 370 426 40,000  Level Edmonton Center
05:47PM 53.7000 -119.1333 279° West 360 414 40,000  Level Edmonton Center
05:48PM 53.7167 -119.3167 279° West 360 414 40,000  Level Edmonton Center
05:49PM 53.7333 -119.4667 281° West 360 414 40,000  Level Edmonton Center
05:50PM 53.7167 -119.6333 260° West 360 414 40,000  Level Edmonton Center
05:51PM 53.7333 -119.8167 279° West 370 426 40,000 -300 Level Edmonton Center
05:52PM 53.7500 -119.9667 281° West 360 414 39,400 -1,200 Descending Edmonton Center
05:53PM 53.7500 -120.1667 270° West 370 426 37,600 -1,800 Descending Edmonton Center
05:54PM 53.7667 -120.3167 281° West 370 426 35,900 -1,920 Descending Edmonton Center
05:55PM 53.8000 -120.5167 286° West 380 437 33,800 -2,040 Descending Edmonton Center
05:56PM 53.8167 -120.7000 279° West 370 426 31,900 -2,100 Descending Edmonton Center
05:57PM 53.8333 -120.8833 279° West 380 437 29,700 -2,160 Descending Edmonton Center
05:58PM 53.8833 -120.9333 329° Northwest 380 437 28,000 -2,100 Descending Vancouver Center
05:59PM 53.9000 -121.1333 278° West 390 449 25,900 -2,160 Descending Vancouver Center
06:00PM 53.9167 -121.3000 280° West 380 437 23,700 -2,220 Descending Vancouver Center
06:01PM 53.9333 -121.4667 280° West 370 426 21,500 -2,160 Descending Vancouver Center
06:02PM 53.9500 -121.6500 279° West 360 414 19,400 -2,100 Descending Vancouver Center
06:03PM 53.9667 -121.7833 282° West 350 403 17,300 -2,280 Descending Vancouver Center
06:04PM 53.9500 -121.9500 260° West 340 391 14,900 -2,280 Descending Vancouver Center
06:05PM 53.9500 -122.1000 270° West 330 380 12,800 -2,220 Descending Vancouver Center
06:06PM 53.9333 -122.2667 260° West 320 368 10,500 -2,400 Descending Vancouver Center
06:07PM 53.9500 -122.4000 282° West 320 368 8,000 -2,940 Descending Vancouver Center
06:08PM 53.9333 -122.5167 256° West 260 299 4,700 -2,280 Descending Vancouver Center
06:09PM 53.9167 -122.6000 251° West 220 253 3,500 -1,140 Descending Vancouver Center
06:10PM 53.9000 -122.6667 247° West 150 173 2,500 -1,020 Descending Vancouver Center